Frank Pais International Airport
MUHG : rendu visible

Aérodrome :











RETROUVEZ-NOUS SUR...

 
LOGIN :

S'inscrire | Disclaimer

   EN    FR    IT 

 









Légende :    VFR   VFR Marginal   IFR   IFR Intensif   IFR Très Intensif
Visi : 
Plafond : 
>= 8 km
>= 3000ft
5 à 8 km
1000 à 3000 ft
1500m à 5 km
500 à 1000 ft
800 à 1500m
200 à 500 ft
< 800m
< 200 ft
Symboles :   Orages  Brouillard  Fortes neiges  Fortes précipitations  Vent > 20 kt






- Altitude de l'aérodrome : 361 ft
- Code IATA : HOG


MUHG - Frank Pais International

DERNIER METAR :
  • 020550Z 24005KT 9000 SKC 23/21 Q1013

METARs EXPIRÉS :
  • 020450Z 22005KT 9000 SKC 24/21 Q1013
  • 020350Z 21003KT 9000 SKC 25/21 Q1014

TAF MUHG
Valide du 02 à 06h jusqu'au 03 à 06h UTC


020500Z 0206/0306 VRB03KT 9000 FEW050
FM020700 VRB03KT 5000 BR FEW080
TEMPO 0208/0212 3000 BR SCT020
FM021400 VRB05KT 9000 BKN020



MET'MAP, la Météo Aéronautique d'un coup d'oeil ! - Copyright ORBIFLY Décembre 2007 - Disclaimer

ORBIFLY MET'MAP TEAM :

Programmation & Développement : Alexandra Zaïnal
Sur une idée originale de : Baudouin d'Aumeries
Assistance à la programmation : Marc-Olivier Méhu
Soutien technique & logistique : Manuel Goepfert

Contact : metmap@orbifly.com




SOURCES & CREDITS :

   NOAA       Earth
Advisory